createdAt,value
2023-02-19T00:00:39.091Z,100.00
2023-02-19T00:01:42.940Z,100.00
2023-02-19T00:02:47.463Z,100.00
2023-02-19T00:03:52.223Z,100.00
2023-02-19T00:04:53.666Z,99.90
2023-02-19T00:05:55.211Z,100.00
2023-02-19T00:06:56.692Z,100.00
2023-02-19T00:07:58.306Z,99.90
2023-02-19T00:08:59.853Z,100.00
2023-02-19T00:10:01.258Z,100.00
2023-02-19T00:11:04.652Z,99.73
2023-02-19T00:12:06.388Z,99.97
2023-02-19T00:13:07.844Z,99.85
2023-02-19T00:14:13.600Z,99.69
2023-02-19T00:15:15.054Z,99.82
2023-02-19T00:16:28.094Z,100.00
2023-02-19T00:17:31.181Z,100.00
2023-02-19T00:18:32.572Z,100.00
2023-02-19T00:19:33.970Z,99.93
2023-02-19T00:20:35.387Z,100.00
2023-02-19T00:21:36.811Z,99.42
2023-02-19T00:22:38.213Z,99.48
2023-02-19T00:23:40.138Z,99.61
2023-02-19T00:24:42.064Z,100.00
2023-02-19T00:25:43.507Z,99.81
2023-02-19T00:26:46.433Z,99.66
2023-02-19T00:27:47.856Z,99.70
2023-02-19T00:28:50.968Z,99.78
2023-02-19T00:29:52.865Z,100.00
2023-02-19T00:30:54.326Z,100.00
2023-02-19T00:31:55.967Z,100.00
2023-02-19T00:32:57.461Z,100.00
2023-02-19T00:34:03.832Z,99.89
2023-02-19T00:35:05.491Z,100.00
2023-02-19T00:36:07.305Z,100.00
2023-02-19T00:37:08.726Z,100.00
2023-02-19T00:38:10.196Z,100.00
2023-02-19T00:39:15.323Z,100.00
2023-02-19T00:40:17.190Z,100.00
2023-02-19T00:41:21.309Z,100.00
2023-02-19T00:42:22.851Z,100.00
2023-02-19T00:43:24.331Z,100.00
2023-02-19T00:44:25.745Z,100.00
2023-02-19T00:45:27.269Z,100.00
2023-02-19T00:46:35.065Z,100.00
2023-02-19T00:47:36.499Z,100.00
2023-02-19T00:48:37.936Z,100.00
2023-02-19T00:49:39.377Z,100.00
2023-02-19T00:50:40.767Z,100.00
2023-02-19T00:51:42.262Z,100.00
2023-02-19T00:52:43.685Z,100.00
2023-02-19T00:53:45.554Z,100.00
2023-02-19T00:54:46.982Z,100.00
2023-02-19T00:55:48.477Z,100.00
2023-02-19T00:56:50.342Z,100.00
2023-02-19T00:57:51.787Z,100.00
2023-02-19T00:58:53.567Z,100.00
2023-02-19T00:59:54.992Z,100.00
2023-02-19T01:00:56.609Z,100.00
2023-02-19T01:01:58.049Z,100.00
2023-02-19T01:02:59.497Z,100.00
2023-02-19T01:04:00.988Z,100.00
2023-02-19T01:05:02.492Z,100.00
2023-02-19T01:06:05.112Z,100.00
2023-02-19T01:07:07.064Z,99.59
2023-02-19T01:08:09.377Z,99.66
2023-02-19T01:09:10.834Z,100.00
2023-02-19T01:10:12.303Z,100.00
2023-02-19T01:11:14.429Z,99.73
2023-02-19T01:12:15.721Z,100.00
2023-02-19T01:13:18.365Z,99.94
2023-02-19T01:14:19.768Z,99.90
2023-02-19T01:15:21.338Z,99.86
2023-02-19T01:16:27.432Z,99.97
2023-02-19T01:17:28.958Z,100.00
2023-02-19T01:18:30.932Z,100.00
2023-02-19T01:19:32.332Z,100.00
2023-02-19T01:20:33.833Z,99.92
2023-02-19T01:21:35.215Z,99.64
2023-02-19T01:22:36.662Z,100.00
2023-02-19T01:23:38.364Z,100.00
2023-02-19T01:24:39.908Z,100.00
2023-02-19T01:25:42.475Z,100.00
2023-02-19T01:26:43.899Z,99.70
2023-02-19T01:27:46.116Z,99.89
2023-02-19T01:28:48.293Z,99.85
2023-02-19T01:29:49.689Z,99.37
2023-02-19T01:30:51.084Z,99.79
2023-02-19T01:31:52.556Z,99.16
2023-02-19T01:32:54.089Z,99.24
2023-02-19T01:33:58.595Z,99.16
2023-02-19T01:35:00.004Z,99.51
2023-02-19T01:36:04.684Z,99.45
2023-02-19T01:37:08.037Z,99.20
2023-02-19T01:38:09.497Z,99.84
2023-02-19T01:39:11.325Z,99.45
2023-02-19T01:40:12.744Z,99.60
2023-02-19T01:41:17.243Z,99.67
2023-02-19T01:42:18.667Z,99.60
2023-02-19T01:43:20.170Z,99.03
2023-02-19T01:44:21.542Z,98.98
2023-02-19T01:45:29.471Z,99.47
2023-02-19T01:46:36.431Z,99.43
2023-02-19T01:47:37.890Z,99.40
2023-02-19T01:48:39.758Z,99.65
2023-02-19T01:49:48.939Z,98.94
2023-02-19T01:50:55.874Z,99.14
2023-02-19T01:52:13.373Z,99.04
2023-02-19T01:53:19.060Z,98.91
2023-02-19T01:54:25.110Z,99.08
2023-02-19T01:55:26.584Z,98.86
2023-02-19T01:56:28.968Z,99.13
2023-02-19T01:57:35.752Z,99.37
2023-02-19T01:58:38.061Z,99.72
2023-02-19T01:59:40.870Z,99.47
2023-02-19T02:00:42.574Z,99.81
2023-02-19T02:01:44.829Z,99.56
2023-02-19T02:02:51.268Z,99.68
2023-02-19T02:03:52.852Z,99.15
2023-02-19T02:04:56.312Z,99.61
2023-02-19T02:06:03.766Z,99.52
2023-02-19T02:07:29.601Z,99.43
2023-02-19T02:08:51.804Z,99.87
2023-02-19T02:10:12.227Z,99.49
2023-02-19T02:11:13.656Z,99.67
2023-02-19T02:12:15.437Z,99.50
2023-02-19T02:13:17.165Z,98.89
2023-02-19T02:14:25.353Z,98.24
2023-02-19T02:15:36.434Z,98.01
2023-02-19T02:17:15.825Z,98.38
2023-02-19T02:19:05.227Z,98.06
2023-02-19T02:20:15.417Z,98.39
2023-02-19T02:21:41.405Z,98.53
2023-02-19T02:23:05.577Z,98.99
2023-02-19T02:24:31.574Z,98.52
2023-02-19T02:25:58.779Z,97.93
2023-02-19T02:27:15.336Z,97.91
2023-02-19T02:28:19.707Z,98.76
2023-02-19T02:29:26.453Z,98.35
2023-02-19T02:30:41.472Z,97.65
2023-02-19T02:31:49.956Z,98.15
2023-02-19T02:33:00.427Z,97.65
2023-02-19T02:34:12.149Z,97.52
2023-02-19T02:35:19.201Z,97.37
2023-02-19T02:36:27.569Z,96.90
2023-02-19T02:37:33.897Z,96.88
2023-02-19T02:38:38.875Z,97.28
2023-02-19T02:39:42.053Z,97.36
2023-02-19T02:40:44.912Z,97.07
2023-02-19T02:42:13.847Z,97.04
2023-02-19T02:43:15.369Z,97.31
2023-02-19T02:44:16.754Z,96.36
2023-02-19T02:45:36.369Z,96.13
2023-02-19T02:46:42.264Z,95.91
2023-02-19T02:47:46.414Z,95.59
2023-02-19T02:48:56.122Z,96.33
2023-02-19T02:50:07.915Z,96.55
2023-02-19T02:51:30.415Z,96.32
2023-02-19T02:52:54.782Z,96.47
2023-02-19T02:54:23.767Z,96.72
2023-02-19T02:55:26.403Z,97.34
2023-02-19T02:56:28.943Z,94.59
2023-02-19T02:57:30.386Z,96.19
2023-02-19T02:58:32.545Z,96.93
2023-02-19T02:59:38.123Z,96.18
2023-02-19T03:01:02.406Z,96.04
2023-02-19T03:02:18.965Z,95.70
2023-02-19T03:03:24.920Z,95.33
2023-02-19T03:04:30.225Z,95.71
2023-02-19T03:05:51.277Z,95.64
2023-02-19T03:06:55.332Z,96.08
2023-02-19T03:08:03.716Z,96.34
2023-02-19T03:09:14.784Z,97.43
2023-02-19T03:10:39.909Z,96.95
2023-02-19T03:12:03.895Z,97.29
2023-02-19T03:13:29.454Z,97.33
2023-02-19T03:14:58.226Z,97.53
2023-02-19T03:16:25.197Z,97.91
2023-02-19T03:17:54.178Z,97.82
2023-02-19T03:19:17.628Z,98.08
2023-02-19T03:20:23.155Z,97.27
2023-02-19T03:21:27.351Z,97.17
2023-02-19T03:22:34.521Z,97.40
2023-02-19T03:23:55.938Z,97.26
2023-02-19T03:25:20.775Z,96.40
2023-02-19T03:26:24.132Z,96.59
2023-02-19T03:27:30.232Z,95.31
2023-02-19T03:28:53.460Z,96.32
2023-02-19T03:30:00.581Z,96.03
2023-02-19T03:31:02.067Z,96.59
2023-02-19T03:32:36.963Z,96.46
2023-02-19T03:33:41.471Z,95.09
2023-02-19T03:34:55.946Z,95.36
2023-02-19T03:36:01.426Z,95.95
2023-02-19T03:37:25.079Z,96.62
2023-02-19T03:38:52.811Z,96.34
2023-02-19T03:39:55.345Z,96.61
2023-02-19T03:41:14.698Z,96.19
2023-02-19T03:42:22.110Z,95.58
2023-02-19T03:43:32.677Z,95.90
2023-02-19T03:44:43.262Z,94.82
2023-02-19T03:46:06.890Z,94.43
2023-02-19T03:47:17.175Z,92.99
2023-02-19T03:48:30.879Z,94.96
2023-02-19T03:49:47.838Z,95.23
2023-02-19T03:51:08.783Z,94.38
2023-02-19T03:52:25.701Z,94.79
2023-02-19T03:53:37.972Z,94.02
2023-02-19T03:54:52.696Z,93.92
2023-02-19T03:56:02.987Z,95.42
2023-02-19T03:57:14.221Z,94.87
2023-02-19T03:58:27.762Z,95.68
2023-02-19T03:59:37.534Z,95.56
2023-02-19T04:00:49.262Z,95.89
2023-02-19T04:01:56.247Z,96.02
2023-02-19T04:03:20.588Z,95.88
2023-02-19T04:04:36.453Z,95.67
2023-02-19T04:05:45.367Z,96.19
2023-02-19T04:06:53.884Z,96.56
2023-02-19T04:08:00.379Z,96.96
2023-02-19T04:09:05.960Z,96.63
2023-02-19T04:10:09.246Z,97.48
2023-02-19T04:11:11.951Z,97.23
2023-02-19T04:12:15.685Z,97.36
2023-02-19T04:13:24.988Z,96.85
2023-02-19T04:14:37.046Z,96.88
2023-02-19T04:15:41.584Z,96.67
2023-02-19T04:16:47.676Z,97.50
2023-02-19T04:18:05.361Z,97.20
2023-02-19T04:19:11.769Z,97.06
2023-02-19T04:20:14.333Z,96.63
2023-02-19T04:21:16.528Z,96.77
2023-02-19T04:22:18.645Z,95.60
2023-02-19T04:23:22.982Z,95.21
2023-02-19T04:24:31.106Z,95.40
2023-02-19T04:25:33.076Z,96.15
2023-02-19T04:26:35.801Z,95.97
2023-02-19T04:27:38.842Z,96.26
2023-02-19T04:28:42.900Z,96.62
2023-02-19T04:29:44.310Z,96.86
2023-02-19T04:30:46.891Z,96.22
2023-02-19T04:31:48.493Z,96.55
2023-02-19T04:32:50.008Z,95.62
2023-02-19T04:33:51.434Z,96.37
2023-02-19T04:34:54.325Z,96.75
2023-02-19T04:35:55.895Z,97.29
2023-02-19T04:36:57.426Z,97.73
2023-02-19T04:37:58.881Z,97.83
2023-02-19T04:39:00.462Z,97.00
2023-02-19T04:40:01.933Z,96.21
2023-02-19T04:41:03.764Z,96.87
2023-02-19T04:42:05.498Z,96.18
2023-02-19T04:43:06.958Z,96.01
2023-02-19T04:44:08.375Z,95.35
2023-02-19T04:45:09.809Z,94.82
2023-02-19T04:46:11.306Z,95.97
2023-02-19T04:47:12.758Z,95.64
2023-02-19T04:48:14.904Z,95.77
2023-02-19T04:49:16.234Z,94.80
2023-02-19T04:50:17.866Z,95.45
2023-02-19T04:51:19.279Z,96.91
2023-02-19T04:52:20.714Z,97.33
2023-02-19T04:53:22.200Z,96.07
2023-02-19T04:54:23.790Z,95.99
2023-02-19T04:55:25.270Z,96.42
2023-02-19T04:56:26.729Z,96.38
2023-02-19T04:57:28.138Z,97.24
2023-02-19T04:58:31.166Z,97.44
2023-02-19T04:59:33.149Z,97.20
2023-02-19T05:00:34.564Z,96.85
2023-02-19T05:01:36.041Z,96.03
2023-02-19T05:02:37.543Z,96.39
2023-02-19T05:03:39.148Z,96.94
2023-02-19T05:04:41.171Z,96.61
2023-02-19T05:05:42.644Z,97.20
2023-02-19T05:06:44.050Z,97.99
2023-02-19T05:07:45.757Z,96.54
2023-02-19T05:08:47.220Z,96.81
2023-02-19T05:09:48.639Z,97.03
2023-02-19T05:10:50.083Z,97.26
2023-02-19T05:11:51.500Z,97.63
2023-02-19T05:12:56.794Z,97.64
2023-02-19T05:13:59.362Z,97.41
2023-02-19T05:15:00.798Z,96.20
2023-02-19T05:16:09.542Z,96.38
2023-02-19T05:17:11.006Z,95.57
2023-02-19T05:18:12.469Z,95.83
2023-02-19T05:19:13.952Z,96.38
2023-02-19T05:20:15.483Z,96.54
2023-02-19T05:21:17.036Z,97.07
2023-02-19T05:22:18.482Z,96.60
2023-02-19T05:23:21.337Z,96.26
2023-02-19T05:24:24.314Z,95.94
2023-02-19T05:25:25.739Z,96.58
2023-02-19T05:26:27.169Z,97.38
2023-02-19T05:27:30.637Z,96.28
2023-02-19T05:28:32.066Z,96.00
2023-02-19T05:29:33.504Z,96.85
2023-02-19T05:30:35.495Z,96.30
2023-02-19T05:31:36.984Z,95.75
2023-02-19T05:32:38.729Z,97.18
2023-02-19T05:33:42.400Z,96.83
2023-02-19T05:34:43.835Z,97.33
2023-02-19T05:35:49.980Z,97.73
2023-02-19T05:36:51.452Z,96.93
2023-02-19T05:37:52.854Z,96.34
2023-02-19T05:38:57.371Z,97.00
2023-02-19T05:39:58.782Z,96.90
2023-02-19T05:41:18.329Z,97.24
2023-02-19T05:42:19.785Z,96.86
2023-02-19T05:43:21.197Z,96.80
2023-02-19T05:44:22.660Z,96.57
2023-02-19T05:45:24.084Z,96.35
2023-02-19T05:46:29.578Z,96.10
2023-02-19T05:47:31.046Z,96.84
2023-02-19T05:48:32.999Z,96.37
2023-02-19T05:49:34.456Z,96.28
2023-02-19T05:50:39.450Z,96.77
2023-02-19T05:51:41.157Z,96.53
2023-02-19T05:52:44.122Z,96.75
2023-02-19T05:53:46.769Z,97.28
2023-02-19T05:54:48.216Z,97.14
2023-02-19T05:55:49.644Z,96.87
2023-02-19T05:56:51.063Z,96.75
2023-02-19T05:57:52.622Z,96.38
2023-02-19T05:58:54.871Z,96.39
2023-02-19T05:59:56.751Z,96.62
2023-02-19T06:00:58.183Z,95.32
2023-02-19T06:01:59.685Z,96.57
2023-02-19T06:03:01.663Z,96.35
2023-02-19T06:04:03.313Z,96.25
2023-02-19T06:05:05.789Z,97.21
2023-02-19T06:06:07.570Z,96.96
2023-02-19T06:07:09.235Z,97.17
2023-02-19T06:08:14.025Z,97.19
2023-02-19T06:09:15.622Z,96.14
2023-02-19T06:10:18.087Z,96.26
2023-02-19T06:11:20.142Z,96.10
2023-02-19T06:12:21.595Z,96.22
2023-02-19T06:13:22.969Z,97.00
2023-02-19T06:14:24.420Z,97.08
2023-02-19T06:15:25.810Z,96.40
2023-02-19T06:16:27.502Z,96.76
2023-02-19T06:17:28.972Z,96.40
2023-02-19T06:18:30.403Z,96.43
2023-02-19T06:19:31.875Z,96.43
2023-02-19T06:20:33.387Z,96.56
2023-02-19T06:21:34.899Z,97.24
2023-02-19T06:22:36.321Z,97.47
2023-02-19T06:23:38.835Z,97.06
2023-02-19T06:24:40.295Z,96.72
2023-02-19T06:25:41.960Z,96.96
2023-02-19T06:26:43.379Z,97.70
2023-02-19T06:27:44.896Z,97.00
2023-02-19T06:28:48.830Z,96.83
2023-02-19T06:29:50.416Z,96.43
2023-02-19T06:30:51.873Z,96.83
2023-02-19T06:31:53.327Z,97.00
2023-02-19T06:32:54.869Z,97.19
2023-02-19T06:33:56.372Z,95.69
2023-02-19T06:34:57.805Z,95.95
2023-02-19T06:36:02.072Z,96.40
2023-02-19T06:37:03.522Z,97.02
2023-02-19T06:38:04.936Z,95.67
2023-02-19T06:39:06.612Z,96.96
2023-02-19T06:40:08.540Z,97.65
2023-02-19T06:41:10.751Z,97.79
2023-02-19T06:42:12.364Z,98.47
2023-02-19T06:43:13.770Z,98.47
2023-02-19T06:44:15.197Z,97.62
2023-02-19T06:45:16.596Z,97.58
2023-02-19T06:46:18.134Z,97.29
2023-02-19T06:47:19.647Z,95.57
2023-02-19T06:48:21.170Z,95.77
2023-02-19T06:49:22.785Z,97.11
2023-02-19T06:50:24.247Z,96.54
2023-02-19T06:51:27.217Z,97.27
2023-02-19T06:52:28.621Z,96.72
2023-02-19T06:53:30.497Z,96.13
2023-02-19T06:54:33.305Z,96.37
2023-02-19T06:55:34.751Z,96.69
2023-02-19T06:56:39.512Z,97.16
2023-02-19T06:57:40.974Z,95.48
2023-02-19T06:58:42.396Z,94.93
2023-02-19T06:59:43.892Z,96.33
2023-02-19T07:00:45.316Z,95.79
2023-02-19T07:01:46.750Z,95.72
2023-02-19T07:02:48.226Z,95.98
2023-02-19T07:03:50.831Z,96.58
2023-02-19T07:04:52.311Z,96.33
2023-02-19T07:05:53.766Z,96.46
2023-02-19T07:06:55.195Z,95.08
2023-02-19T07:07:56.671Z,94.96
2023-02-19T07:08:59.006Z,95.61
2023-02-19T07:10:00.452Z,96.46
2023-02-19T07:11:01.976Z,95.77
2023-02-19T07:12:03.619Z,97.01
2023-02-19T07:13:05.211Z,96.65
2023-02-19T07:14:08.881Z,96.12
2023-02-19T07:15:10.362Z,95.65
2023-02-19T07:16:12.740Z,96.04
2023-02-19T07:17:14.242Z,96.00
2023-02-19T07:18:15.673Z,95.40
2023-02-19T07:19:17.128Z,95.56
2023-02-19T07:20:18.691Z,94.69
2023-02-19T07:21:20.098Z,95.58
2023-02-19T07:22:21.547Z,94.78
2023-02-19T07:23:22.939Z,96.00
2023-02-19T07:24:24.314Z,95.48
2023-02-19T07:25:25.748Z,95.07
2023-02-19T07:26:27.217Z,95.32
2023-02-19T07:27:28.626Z,95.34
2023-02-19T07:28:30.081Z,95.26
2023-02-19T07:29:31.531Z,95.22
2023-02-19T07:30:33.094Z,94.32
2023-02-19T07:31:34.706Z,95.00
2023-02-19T07:32:36.448Z,95.77
2023-02-19T07:33:37.893Z,94.97
2023-02-19T07:34:39.330Z,93.80
2023-02-19T07:35:48.321Z,94.24
2023-02-19T07:36:49.719Z,94.38
2023-02-19T07:37:51.136Z,95.05
2023-02-19T07:38:57.030Z,95.89
2023-02-19T07:39:58.426Z,94.58
2023-02-19T07:41:02.277Z,94.72
2023-02-19T07:42:03.794Z,95.52
2023-02-19T07:43:05.197Z,94.38
2023-02-19T07:44:06.662Z,95.09
2023-02-19T07:45:08.548Z,95.88
2023-02-19T07:46:12.444Z,95.25
2023-02-19T07:47:13.866Z,93.48
2023-02-19T07:48:15.683Z,93.50
2023-02-19T07:49:17.166Z,94.74
2023-02-19T07:50:18.720Z,94.30
2023-02-19T07:51:20.914Z,94.40
2023-02-19T07:52:22.553Z,93.79
2023-02-19T07:53:25.278Z,94.00
2023-02-19T07:54:26.749Z,94.72
2023-02-19T07:55:28.249Z,95.07
2023-02-19T07:56:29.718Z,95.10
2023-02-19T07:57:31.286Z,94.06
2023-02-19T07:58:33.275Z,94.69
2023-02-19T07:59:34.944Z,93.68
2023-02-19T08:00:36.356Z,95.08
2023-02-19T08:01:56.255Z,94.05
2023-02-19T08:03:00.497Z,93.70
2023-02-19T08:04:01.964Z,93.65
2023-02-19T08:05:05.266Z,94.64
2023-02-19T08:06:07.074Z,93.66
2023-02-19T08:07:08.483Z,94.31
2023-02-19T08:08:12.386Z,95.08
2023-02-19T08:09:13.843Z,95.52
2023-02-19T08:10:33.894Z,94.41
2023-02-19T08:11:54.279Z,94.07
2023-02-19T08:13:18.574Z,93.32
2023-02-19T08:14:20.216Z,93.12
2023-02-19T08:15:22.568Z,93.43
2023-02-19T08:16:37.204Z,93.12
2023-02-19T08:17:43.771Z,92.92
2023-02-19T08:18:46.267Z,93.33
2023-02-19T08:19:47.671Z,92.67
2023-02-19T08:20:49.347Z,92.36
2023-02-19T08:21:50.944Z,91.32
2023-02-19T08:22:52.358Z,92.55
2023-02-19T08:23:53.835Z,91.47
2023-02-19T08:24:55.260Z,91.90
2023-02-19T08:26:00.656Z,92.40
2023-02-19T08:27:02.035Z,91.59
2023-02-19T08:28:04.183Z,93.52
2023-02-19T08:29:05.968Z,92.85
2023-02-19T08:30:08.800Z,91.51
2023-02-19T08:31:12.723Z,91.49
2023-02-19T08:32:14.442Z,91.12
2023-02-19T08:33:18.959Z,90.51
2023-02-19T08:34:20.378Z,91.34
2023-02-19T08:35:22.145Z,90.74
2023-02-19T08:36:23.588Z,89.17
2023-02-19T08:37:24.966Z,90.52
2023-02-19T08:38:26.365Z,90.00
2023-02-19T08:39:27.890Z,90.46
2023-02-19T08:40:29.520Z,91.71
2023-02-19T08:41:30.929Z,90.83
2023-02-19T08:42:32.342Z,89.25
2023-02-19T08:43:33.830Z,90.13
2023-02-19T08:44:35.246Z,88.41
2023-02-19T08:45:41.120Z,88.58
2023-02-19T08:46:42.523Z,86.81
2023-02-19T08:47:44.317Z,88.11
2023-02-19T08:48:45.976Z,89.10
2023-02-19T08:49:47.405Z,89.10
2023-02-19T08:51:00.357Z,89.60
2023-02-19T08:52:01.770Z,90.04
2023-02-19T08:53:05.095Z,88.57
2023-02-19T08:54:06.547Z,86.43
2023-02-19T08:55:08.232Z,86.97
2023-02-19T08:56:12.601Z,87.22
2023-02-19T08:57:14.004Z,86.68
2023-02-19T08:58:15.436Z,85.82
2023-02-19T08:59:16.985Z,86.93
2023-02-19T09:00:18.815Z,87.78
2023-02-19T09:01:20.317Z,86.39
2023-02-19T09:02:22.083Z,86.30
2023-02-19T09:03:23.548Z,86.99
2023-02-19T09:04:25.205Z,86.40
2023-02-19T09:05:26.695Z,85.99
2023-02-19T09:06:28.121Z,87.17
2023-02-19T09:07:29.543Z,85.92
2023-02-19T09:08:30.985Z,86.11
2023-02-19T09:09:32.377Z,87.35
2023-02-19T09:10:34.067Z,85.62
2023-02-19T09:11:35.506Z,85.79
2023-02-19T09:12:38.189Z,85.99
2023-02-19T09:13:39.650Z,85.00
2023-02-19T09:14:41.381Z,88.23
2023-02-19T09:15:42.805Z,85.75
2023-02-19T09:16:44.232Z,86.89
2023-02-19T09:17:45.619Z,85.26
2023-02-19T09:18:47.068Z,83.11
2023-02-19T09:19:50.770Z,85.87
2023-02-19T09:20:52.473Z,81.73
2023-02-19T09:21:54.100Z,84.17
2023-02-19T09:22:59.444Z,83.63
2023-02-19T09:24:00.890Z,86.34
2023-02-19T09:25:02.450Z,84.53
2023-02-19T09:26:08.458Z,83.06
2023-02-19T09:27:15.321Z,83.29
2023-02-19T09:28:16.881Z,83.66
2023-02-19T09:29:18.791Z,83.07
2023-02-19T09:30:20.308Z,81.74
2023-02-19T09:31:21.858Z,85.00
2023-02-19T09:32:23.294Z,82.66
2023-02-19T09:33:24.795Z,83.08
2023-02-19T09:34:27.762Z,83.10
2023-02-19T09:35:29.152Z,83.35
2023-02-19T09:36:30.625Z,81.43
2023-02-19T09:37:34.034Z,84.41
2023-02-19T09:38:35.614Z,82.16
2023-02-19T09:39:37.050Z,85.95
2023-02-19T09:40:39.507Z,81.49
2023-02-19T09:41:49.886Z,84.57
2023-02-19T09:42:51.954Z,81.90
2023-02-19T09:43:53.600Z,81.89
2023-02-19T09:44:57.677Z,79.65
2023-02-19T09:46:25.503Z,81.40
2023-02-19T09:47:30.153Z,81.09
2023-02-19T09:48:32.189Z,81.99
2023-02-19T09:49:40.650Z,82.24
2023-02-19T09:50:48.573Z,80.71
2023-02-19T09:52:15.277Z,81.17
2023-02-19T09:53:29.657Z,83.88
2023-02-19T09:54:32.065Z,80.55
2023-02-19T09:55:40.689Z,79.95
2023-02-19T09:56:42.224Z,81.90
2023-02-19T09:57:45.646Z,80.03
2023-02-19T09:58:50.262Z,77.86
2023-02-19T10:00:00.235Z,79.24
2023-02-19T10:01:04.402Z,78.76
2023-02-19T10:02:22.162Z,79.71
2023-02-19T10:03:41.383Z,79.54
2023-02-19T10:04:44.806Z,79.90
2023-02-19T10:05:46.345Z,77.73
2023-02-19T10:06:48.922Z,77.38
2023-02-19T10:07:53.178Z,80.79
2023-02-19T10:09:12.316Z,75.06
2023-02-19T10:10:13.663Z,76.54
2023-02-19T10:11:15.883Z,76.89
2023-02-19T10:12:28.939Z,75.96
2023-02-19T10:13:37.582Z,76.68
2023-02-19T10:14:43.879Z,78.51
2023-02-19T10:15:57.367Z,77.41
2023-02-19T10:17:02.160Z,76.64
2023-02-19T10:18:05.360Z,74.32
2023-02-19T10:19:11.316Z,76.86
2023-02-19T10:20:15.980Z,73.96
2023-02-19T10:21:20.300Z,74.33
2023-02-19T10:22:21.829Z,74.84
2023-02-19T10:23:24.741Z,74.92
2023-02-19T10:24:29.758Z,75.91
2023-02-19T10:25:32.994Z,75.75
2023-02-19T10:26:37.284Z,74.52
2023-02-19T10:27:38.713Z,72.71
2023-02-19T10:28:40.301Z,73.79
2023-02-19T10:29:46.511Z,75.81
2023-02-19T10:30:54.643Z,73.04
2023-02-19T10:32:24.054Z,72.33
2023-02-19T10:33:26.347Z,72.44
2023-02-19T10:34:27.855Z,70.72
2023-02-19T10:35:30.509Z,71.56
2023-02-19T10:36:36.152Z,71.90
2023-02-19T10:37:46.343Z,69.96
2023-02-19T10:38:47.976Z,70.53
2023-02-19T10:39:50.618Z,70.17
2023-02-19T10:41:12.181Z,72.51
2023-02-19T10:42:18.944Z,72.53
2023-02-19T10:43:31.124Z,75.43
2023-02-19T10:44:42.531Z,71.55
2023-02-19T10:45:50.206Z,72.99
2023-02-19T10:46:55.284Z,71.66
2023-02-19T10:47:57.058Z,74.67
2023-02-19T10:49:01.407Z,72.31
2023-02-19T10:50:04.628Z,72.31
2023-02-19T10:51:10.750Z,72.07
2023-02-19T10:52:20.300Z,71.64
2023-02-19T10:53:23.886Z,72.17
2023-02-19T10:54:31.405Z,72.11
2023-02-19T10:55:37.526Z,71.31
2023-02-19T10:56:40.689Z,72.17
2023-02-19T10:57:42.280Z,70.01
2023-02-19T10:58:44.946Z,69.43
2023-02-19T10:59:51.706Z,70.15
2023-02-19T11:01:12.198Z,70.15
2023-02-19T11:02:19.063Z,70.00
2023-02-19T11:03:22.614Z,69.32
2023-02-19T11:04:26.074Z,67.71
2023-02-19T11:05:27.573Z,67.68
2023-02-19T11:06:29.470Z,70.15
2023-02-19T11:07:31.300Z,67.67
2023-02-19T11:08:49.457Z,67.39
2023-02-19T11:09:53.820Z,66.79
2023-02-19T11:10:55.498Z,69.22
2023-02-19T11:11:58.407Z,67.09
2023-02-19T11:13:02.802Z,67.00
2023-02-19T11:14:19.309Z,65.71
2023-02-19T11:15:31.766Z,67.47
2023-02-19T11:16:44.891Z,67.12
2023-02-19T11:17:55.035Z,69.54
2023-02-19T11:18:57.210Z,67.61
2023-02-19T11:20:04.901Z,69.25
2023-02-19T11:21:07.806Z,65.89
2023-02-19T11:22:19.804Z,67.53
2023-02-19T11:23:30.493Z,67.77
2023-02-19T11:24:37.108Z,69.85
2023-02-19T11:25:48.608Z,65.73
2023-02-19T11:26:50.169Z,68.26
2023-02-19T11:28:09.555Z,65.76
2023-02-19T11:29:23.143Z,63.74
2023-02-19T11:30:30.373Z,64.68
2023-02-19T11:31:33.080Z,65.24
2023-02-19T11:32:34.612Z,64.69
2023-02-19T11:33:42.635Z,63.04
2023-02-19T11:34:44.214Z,63.38
2023-02-19T11:35:47.349Z,64.24
2023-02-19T11:37:14.078Z,64.24
2023-02-19T11:38:18.173Z,64.52
2023-02-19T11:39:24.037Z,68.45
2023-02-19T11:40:50.336Z,65.86
2023-02-19T11:42:19.604Z,65.66
2023-02-19T11:43:31.547Z,65.89
2023-02-19T11:44:48.506Z,67.12
2023-02-19T11:46:22.777Z,67.90
2023-02-19T11:47:39.536Z,66.38
2023-02-19T11:48:46.864Z,66.97
2023-02-19T11:50:02.693Z,62.72
2023-02-19T11:51:37.467Z,62.62
2023-02-19T11:53:03.258Z,63.76
2023-02-19T11:54:37.498Z,65.23
2023-02-19T11:56:03.630Z,66.11
2023-02-19T11:57:22.330Z,65.52
2023-02-19T11:58:58.521Z,64.10
2023-02-19T12:00:23.129Z,62.37
2023-02-19T12:01:36.955Z,62.61
2023-02-19T12:02:48.126Z,62.05
2023-02-19T12:04:20.460Z,61.23
2023-02-19T12:05:31.453Z,60.77
2023-02-19T12:07:10.322Z,63.59
2023-02-19T12:08:27.649Z,61.07
2023-02-19T12:09:40.957Z,60.89
2023-02-19T12:11:11.331Z,61.58
2023-02-19T12:12:41.780Z,65.31
2023-02-19T12:14:27.628Z,61.28
2023-02-19T12:16:05.711Z,60.19
2023-02-19T12:17:23.776Z,59.97
2023-02-19T12:18:43.531Z,59.60
2023-02-19T12:19:55.397Z,59.16
2023-02-19T12:21:18.314Z,61.32
2023-02-19T12:22:36.250Z,61.64
2023-02-19T12:23:56.136Z,57.26
2023-02-19T12:25:07.242Z,60.47
2023-02-19T12:26:19.543Z,58.84
2023-02-19T12:27:37.345Z,57.36
2023-02-19T12:29:20.643Z,56.70
2023-02-19T12:30:42.318Z,58.29
2023-02-19T12:31:59.350Z,60.71
2023-02-19T12:33:21.732Z,58.33
2023-02-19T12:34:23.271Z,58.54
2023-02-19T12:35:37.192Z,58.04
2023-02-19T12:37:13.156Z,59.85
2023-02-19T12:38:23.251Z,58.33
2023-02-19T12:40:09.091Z,57.58
2023-02-19T12:41:28.938Z,57.74
2023-02-19T12:42:50.801Z,56.78
2023-02-19T12:44:04.357Z,57.37
2023-02-19T12:45:35.622Z,57.00
2023-02-19T12:46:45.238Z,58.70
2023-02-19T12:48:06.111Z,58.06
2023-02-19T12:49:15.120Z,58.35
2023-02-19T12:50:23.619Z,57.25
2023-02-19T12:51:24.985Z,57.91
2023-02-19T12:52:31.569Z,55.99
2023-02-19T12:53:38.724Z,55.67
2023-02-19T12:54:47.407Z,54.95
2023-02-19T12:55:48.953Z,55.65
2023-02-19T12:57:06.630Z,54.39
2023-02-19T12:58:16.680Z,56.96
2023-02-19T12:59:34.278Z,55.78
2023-02-19T13:00:39.554Z,56.32
2023-02-19T13:01:59.168Z,56.43
2023-02-19T13:03:05.889Z,55.65
2023-02-19T13:04:37.087Z,56.61
2023-02-19T13:06:13.607Z,58.18
2023-02-19T13:07:28.004Z,57.07
2023-02-19T13:08:39.583Z,58.39
2023-02-19T13:09:58.621Z,55.82
2023-02-19T13:11:05.416Z,60.08
2023-02-19T13:12:38.047Z,56.50
2023-02-19T13:13:51.707Z,58.65
2023-02-19T13:15:03.570Z,57.50
2023-02-19T13:16:24.557Z,58.90
2023-02-19T13:17:36.633Z,56.73
2023-02-19T13:18:45.830Z,59.00
2023-02-19T13:19:50.355Z,58.63
2023-02-19T13:20:54.907Z,58.54
2023-02-19T13:22:33.266Z,57.87
2023-02-19T13:24:03.073Z,55.74
2023-02-19T13:25:07.347Z,55.27
2023-02-19T13:26:28.644Z,57.79
2023-02-19T13:27:58.501Z,57.12
2023-02-19T13:29:34.167Z,54.72
2023-02-19T13:30:54.390Z,56.00
2023-02-19T13:32:23.678Z,57.29
2023-02-19T13:33:47.968Z,56.93
2023-02-19T13:35:13.888Z,56.12
2023-02-19T13:36:27.493Z,55.89
2023-02-19T13:37:36.532Z,57.76
2023-02-19T13:38:44.952Z,57.14
2023-02-19T13:39:49.906Z,57.59
2023-02-19T13:40:56.872Z,58.38
2023-02-19T13:41:59.202Z,56.09
2023-02-19T13:43:04.182Z,55.47
2023-02-19T13:44:11.099Z,55.98
2023-02-19T13:45:22.738Z,56.90
2023-02-19T13:46:25.199Z,56.37
2023-02-19T13:47:53.950Z,57.14
2023-02-19T13:49:23.409Z,55.69
2023-02-19T13:50:26.471Z,55.25
2023-02-19T13:51:27.832Z,55.44
2023-02-19T13:52:29.219Z,54.30
2023-02-19T13:53:45.584Z,54.17
2023-02-19T13:54:47.040Z,55.50
2023-02-19T13:55:51.824Z,53.95
2023-02-19T13:57:27.822Z,53.57
2023-02-19T13:58:52.965Z,54.47
2023-02-19T13:59:58.788Z,52.11
2023-02-19T14:01:04.383Z,52.33
2023-02-19T14:02:12.369Z,52.36
2023-02-19T14:03:28.589Z,53.85
2023-02-19T14:04:42.217Z,52.23
2023-02-19T14:06:02.646Z,51.93
2023-02-19T14:07:04.124Z,56.99
2023-02-19T14:08:09.062Z,53.36
2023-02-19T14:09:36.044Z,51.61
2023-02-19T14:10:51.725Z,53.05
2023-02-19T14:12:13.737Z,51.75
2023-02-19T14:13:50.963Z,52.63
2023-02-19T14:14:56.255Z,52.07
2023-02-19T14:15:57.747Z,52.94
2023-02-19T14:17:04.425Z,51.07
2023-02-19T14:18:43.007Z,52.12
2023-02-19T14:19:52.576Z,52.06
2023-02-19T14:21:07.091Z,51.49
2023-02-19T14:22:45.911Z,51.54